KHSV

Huntsville International-Carl T Jones Field Airport

Huntsville, Alabama, USA
METAR KHSV 150053Z 00000KT 10SM FEW200 28/21 A3001 RMK AO2 SLP155 T02830206
Observed Flight Rules
Aug-15 @ 00:53 UTC (11 minutes ago) Visual Flight Rules
Visibility Clouds
10 miles
  • Few at 20,000' AGL
Temperatures Readings
Current 28°C / 82°F
Dewpoint 21°C / 70°F
Humidity 66%
Altimeter 30.01" Hg
Pressure 1015.5 hPa
Elevation 191
METAR KHSV 150053Z 00000KT 10SM FEW200 28/21 A3001 RMK AO2 SLP155 T02830206
Observed Flight Rules
Aug-15 @ 00:53 UTC
(11 minutes ago)
VFR
Clouds
  • Few at 20,000' AGL
Temperature Dewpoint
28°C / 82°F 21°C / 70°F
Humidity Altimeter Pressure
66% 30.01" Hg 1015.5 hPa